Time;durP1;ratioP1;P1;durP2;ratioP2;P2;SDS_P1;SDS_P2;PMS_P1;PMS_P2;Temp;Humidity;BMP_temperature;BMP_pressure;BME280_temperature;BME280_humidity;BME280_pressure;Samples;Min_cycle;Max_cycle;Signal;HPM_P1;HPM_P2
2021/10/20 00:01:18;;;;;;;14.90;13.40;;;9.90;99.90;;;;;;2692126;28;20289;-65
2021/10/20 00:02:35;;;;;;;14.10;12.68;;;9.80;99.90;;;;;;2692095;28;20607;-64
2021/10/20 00:03:54;;;;;;;14.10;12.90;;;9.80;99.90;;;;;;2691416;28;20240;-65
2021/10/20 00:05:12;;;;;;;15.07;12.88;;;9.80;99.90;;;;;;2691879;28;20224;-65
2021/10/20 00:06:30;;;;;;;14.13;12.85;;;9.80;99.90;;;;;;2691885;28;20197;-65
2021/10/20 00:07:48;;;;;;;14.27;12.97;;;9.70;99.90;;;;;;2692207;28;20241;-64
2021/10/20 00:09:05;;;;;;;14.45;13.15;;;9.70;99.90;;;;;;2701146;28;20257;-65
2021/10/20 00:10:24;;;;;;;13.67;12.47;;;9.60;99.90;;;;;;2702977;28;20726;-65
2021/10/20 00:11:41;;;;;;;14.10;12.80;;;9.60;99.90;;;;;;2702820;28;20204;-64
2021/10/20 00:13:00;;;;;;;15.83;14.33;;;9.60;99.90;;;;;;2702691;28;20239;-64
2021/10/20 00:14:18;;;;;;;14.65;13.10;;;9.60;99.90;;;;;;2701608;28;20636;-65
2021/10/20 00:15:37;;;;;;;16.25;14.52;;;9.50;99.90;;;;;;2702655;28;20606;-64
2021/10/20 00:16:54;;;;;;;15.23;13.93;;;9.40;99.90;;;;;;2702685;28;20191;-65
2021/10/20 00:18:13;;;;;;;16.20;13.43;;;9.40;99.90;;;;;;2702683;28;20277;-65
2021/10/20 00:19:30;;;;;;;15.30;13.90;;;9.40;99.90;;;;;;2702722;28;20269;-65
2021/10/20 00:20:51;;;;;;;15.57;14.07;;;9.30;99.90;;;;;;2702801;28;20235;-65
2021/10/20 00:22:08;;;;;;;15.23;13.65;;;9.40;99.90;;;;;;2702756;28;20549;-65
2021/10/20 00:23:26;;;;;;;14.23;12.90;;;9.40;99.90;;;;;;2702744;28;20207;-64
2021/10/20 00:24:44;;;;;;;15.85;14.35;;;9.40;99.90;;;;;;2701880;28;20485;-64
2021/10/20 00:26:02;;;;;;;13.83;12.40;;;9.50;99.90;;;;;;2702030;28;20254;-65
2021/10/20 00:27:21;;;;;;;17.40;15.80;;;9.40;99.90;;;;;;2702523;28;20885;-64
2021/10/20 00:28:39;;;;;;;15.20;13.55;;;9.40;99.90;;;;;;2702507;28;20599;-64
2021/10/20 00:29:57;;;;;;;14.27;12.98;;;9.40;99.90;;;;;;2702738;28;20601;-65
2021/10/20 00:31:15;;;;;;;15.00;13.60;;;9.40;99.90;;;;;;2702558;28;20291;-64
2021/10/20 00:32:33;;;;;;;15.43;12.55;;;9.50;99.90;;;;;;2702462;28;20257;-64
2021/10/20 00:33:51;;;;;;;13.27;11.97;;;9.50;99.90;;;;;;2701783;28;20299;-64
2021/10/20 00:35:10;;;;;;;13.93;12.63;;;9.40;99.90;;;;;;2702423;28;20193;-64
2021/10/20 00:36:27;;;;;;;14.30;12.95;;;9.40;99.90;;;;;;2702629;28;20211;-64
2021/10/20 00:37:46;;;;;;;13.70;12.57;;;9.40;99.90;;;;;;2702538;28;20240;-65
2021/10/20 00:39:04;;;;;;;14.48;13.10;;;9.40;99.90;;;;;;2702789;28;20196;-64
2021/10/20 00:40:22;;;;;;;14.70;13.18;;;9.50;99.90;;;;;;2702338;28;20249;-65
2021/10/20 00:41:40;;;;;;;14.40;13.05;;;9.40;99.90;;;;;;2702714;28;20201;-64
2021/10/20 00:42:58;;;;;;;13.80;12.40;;;9.40;99.90;;;;;;2701651;28;20713;-64
2021/10/20 00:44:17;;;;;;;14.32;13.02;;;9.30;99.90;;;;;;2699876;28;20238;-64
2021/10/20 00:45:35;;;;;;;12.35;11.18;;;9.30;99.90;;;;;;2699574;28;20623;-64
2021/10/20 00:46:54;;;;;;;13.63;12.32;;;9.30;99.90;;;;;;2694903;28;20189;-65
2021/10/20 00:48:12;;;;;;;13.23;12.05;;;9.30;99.90;;;;;;2691517;28;20262;-64
2021/10/20 00:49:30;;;;;;;13.10;11.90;;;9.30;99.90;;;;;;2691570;28;20270;-64
2021/10/20 00:50:49;;;;;;;13.95;12.27;;;9.30;99.90;;;;;;2691535;28;20684;-64
2021/10/20 00:52:06;;;;;;;14.48;13.15;;;9.30;99.90;;;;;;2691792;28;20203;-64
2021/10/20 00:53:25;;;;;;;14.53;13.23;;;9.30;99.90;;;;;;2691636;28;20669;-64
2021/10/20 00:54:43;;;;;;;12.60;11.30;;;9.40;99.90;;;;;;2690796;28;20239;-64
2021/10/20 00:56:02;;;;;;;12.50;11.40;;;9.30;99.90;;;;;;2691600;28;20240;-64
2021/10/20 00:57:19;;;;;;;13.60;12.40;;;9.30;99.90;;;;;;2691463;28;20611;-65
2021/10/20 00:58:38;;;;;;;13.43;12.33;;;9.30;99.90;;;;;;2691956;28;20229;-65
2021/10/20 00:59:55;;;;;;;13.13;11.88;;;9.30;99.90;;;;;;2691990;28;20216;-64
2021/10/20 01:01:14;;;;;;;14.23;12.80;;;9.20;99.90;;;;;;2691577;28;20558;-65
2021/10/20 01:02:32;;;;;;;12.70;11.45;;;9.20;99.90;;;;;;2691594;28;20200;-65
2021/10/20 01:03:50;;;;;;;12.73;11.40;;;9.20;99.90;;;;;;2690949;28;20200;-64
2021/10/20 01:05:09;;;;;;;14.60;13.17;;;9.20;99.90;;;;;;2691112;28;20232;-64
2021/10/20 01:06:27;;;;;;;13.35;12.13;;;9.20;99.90;;;;;;2691327;28;20249;-64
2021/10/20 01:07:45;;;;;;;12.95;11.75;;;9.10;99.90;;;;;;2691385;28;20250;-64
2021/10/20 01:09:04;;;;;;;13.25;12.05;;;9.10;99.90;;;;;;2700919;28;20200;-64
2021/10/20 01:10:22;;;;;;;12.88;11.68;;;9.20;99.90;;;;;;2702018;28;20579;-65
2021/10/20 01:11:40;;;;;;;14.23;13.02;;;9.10;99.90;;;;;;2702308;28;20734;-65
2021/10/20 01:12:58;;;;;;;14.87;13.57;;;9.10;99.90;;;;;;2702268;28;20242;-64
2021/10/20 01:14:17;;;;;;;13.73;12.45;;;9.00;99.90;;;;;;2701337;28;20208;-65
2021/10/20 01:15:35;;;;;;;14.05;12.65;;;9.00;99.90;;;;;;2702141;28;20200;-65
2021/10/20 01:16:53;;;;;;;13.73;12.38;;;9.00;99.90;;;;;;2694028;28;20322;-65
2021/10/20 01:18:11;;;;;;;14.33;13.07;;;8.90;99.90;;;;;;2691035;28;20370;-65
2021/10/20 01:19:29;;;;;;;13.10;11.90;;;8.90;99.90;;;;;;2691153;28;20259;-64
2021/10/20 01:20:47;;;;;;;14.97;13.67;;;9.00;99.90;;;;;;2691162;28;20661;-65
2021/10/20 01:22:04;;;;;;;13.32;12.02;;;9.00;99.90;;;;;;2691542;28;20201;-65
2021/10/20 01:23:23;;;;;;;13.00;11.90;;;8.90;99.90;;;;;;2691379;28;20283;-64
2021/10/20 01:24:41;;;;;;;13.23;11.98;;;8.90;99.90;;;;;;2690613;28;20208;-65
2021/10/20 01:26:00;;;;;;;13.07;11.90;;;8.90;99.90;;;;;;2691403;28;20196;-64
2021/10/20 01:27:18;;;;;;;13.40;12.10;;;8.90;99.90;;;;;;2691543;28;20270;-65
2021/10/20 01:28:36;;;;;;;14.63;13.20;;;8.80;99.90;;;;;;2691371;28;20201;-64
2021/10/20 01:29:54;;;;;;;14.40;13.07;;;8.90;99.90;;;;;;2691181;28;20739;-64
2021/10/20 01:31:12;;;;;;;13.40;12.20;;;8.90;99.90;;;;;;2691304;28;20251;-64
2021/10/20 01:32:30;;;;;;;13.87;12.63;;;8.90;99.90;;;;;;2690950;28;20232;-64
2021/10/20 01:33:48;;;;;;;14.40;12.75;;;8.90;99.90;;;;;;2691338;28;20576;-64
2021/10/20 01:35:07;;;;;;;14.18;12.85;;;8.90;99.90;;;;;;2690606;28;20208;-65
2021/10/20 01:36:24;;;;;;;14.43;13.13;;;8.80;99.90;;;;;;2690949;28;20209;-65
2021/10/20 01:37:43;;;;;;;13.53;12.23;;;8.80;99.90;;;;;;2691096;28;20258;-64
2021/10/20 01:39:00;;;;;;;13.13;11.90;;;8.80;99.90;;;;;;2691333;28;20266;-64
2021/10/20 01:40:19;;;;;;;13.20;12.00;;;8.80;99.90;;;;;;2691117;28;20673;-65
2021/10/20 01:41:36;;;;;;;14.38;12.60;;;8.80;99.90;;;;;;2691183;28;20227;-65
2021/10/20 01:42:55;;;;;;;12.10;11.10;;;8.80;99.90;;;;;;2691266;28;20294;-64
2021/10/20 01:44:12;;;;;;;12.55;11.45;;;8.80;99.90;;;;;;2690067;28;20557;-65
2021/10/20 01:45:30;;;;;;;12.30;11.20;;;8.80;99.90;;;;;;2690865;28;20312;-65
2021/10/20 01:46:48;;;;;;;12.23;11.13;;;8.80;99.90;;;;;;2690450;28;20201;-65
2021/10/20 01:48:06;;;;;;;12.57;11.47;;;8.80;99.90;;;;;;2691087;28;20294;-65
2021/10/20 01:49:25;;;;;;;14.70;13.20;;;8.80;99.90;;;;;;2690635;28;20231;-65
2021/10/20 01:50:43;;;;;;;12.32;11.20;;;8.80;99.90;;;;;;2695043;28;20196;-64
2021/10/20 01:52:01;;;;;;;16.67;11.27;;;8.90;99.90;;;;;;2690880;28;20204;-65
2021/10/20 01:53:19;;;;;;;12.63;11.43;;;8.80;99.90;;;;;;2700854;28;20189;-65
2021/10/20 01:54:37;;;;;;;12.68;11.57;;;8.90;99.90;;;;;;2701048;28;20203;-64
2021/10/20 01:55:55;;;;;;;13.17;11.93;;;8.90;99.90;;;;;;2701496;28;20335;-64
2021/10/20 01:57:12;;;;;;;12.85;11.55;;;8.90;99.90;;;;;;2701845;28;20201;-65
2021/10/20 01:58:31;;;;;;;13.70;12.30;;;8.90;99.90;;;;;;2701391;28;20324;-65
2021/10/20 01:59:48;;;;;;;13.45;12.25;;;8.90;99.90;;;;;;2701668;28;20204;-65
2021/10/20 02:01:08;;;;;;;11.93;10.90;;;8.90;99.90;;;;;;2701713;28;20614;-65
2021/10/20 02:02:25;;;;;;;13.63;12.23;;;8.80;99.90;;;;;;2701622;28;20680;-65
2021/10/20 02:03:45;;;;;;;13.60;12.30;;;8.80;99.90;;;;;;2701442;28;20207;-64
2021/10/20 02:05:03;;;;;;;12.77;11.65;;;8.90;99.90;;;;;;2700875;28;20252;-65
2021/10/20 02:06:22;;;;;;;11.93;10.82;;;8.80;99.90;;;;;;2701435;28;20200;-65
2021/10/20 02:07:39;;;;;;;13.85;12.45;;;8.80;99.90;;;;;;2700812;28;20200;-65
2021/10/20 02:08:57;;;;;;;12.20;11.10;;;8.70;99.90;;;;;;2701625;28;20271;-65
2021/10/20 02:10:16;;;;;;;12.75;11.65;;;8.70;99.90;;;;;;2701357;28;20949;-65
2021/10/20 02:11:33;;;;;;;12.93;11.82;;;8.70;99.90;;;;;;2701699;28;20718;-64
2021/10/20 02:12:52;;;;;;;11.87;10.73;;;8.70;99.90;;;;;;2701761;28;20253;-65
2021/10/20 02:14:09;;;;;;;13.35;12.15;;;8.80;99.90;;;;;;2700616;28;20200;-65
2021/10/20 02:15:28;;;;;;;11.93;10.87;;;8.80;99.90;;;;;;2701486;28;20245;-65
2021/10/20 02:16:45;;;;;;;12.88;11.82;;;8.70;99.90;;;;;;2701705;28;20208;-64
2021/10/20 02:18:04;;;;;;;12.83;11.53;;;8.60;99.90;;;;;;2701512;28;20602;-64
2021/10/20 02:19:22;;;;;;;12.60;11.48;;;8.60;99.90;;;;;;2701489;28;20204;-65
2021/10/20 02:20:40;;;;;;;13.13;12.00;;;8.60;99.90;;;;;;2701612;28;20226;-65
2021/10/20 02:21:58;;;;;;;13.00;11.63;;;8.50;99.90;;;;;;2701751;28;21038;-64
2021/10/20 02:23:16;;;;;;;12.93;11.75;;;8.50;99.90;;;;;;2701558;28;20333;-64
2021/10/20 02:24:34;;;;;;;14.93;13.53;;;8.50;99.90;;;;;;2695381;28;20310;-65
2021/10/20 02:25:52;;;;;;;12.75;11.52;;;8.40;99.90;;;;;;2690549;28;20197;-64
2021/10/20 02:27:11;;;;;;;12.88;11.73;;;8.30;99.90;;;;;;2690612;28;20213;-64
2021/10/20 02:28:29;;;;;;;13.90;12.50;;;8.30;99.90;;;;;;2690458;28;20209;-65
2021/10/20 02:29:47;;;;;;;13.23;11.83;;;8.30;99.90;;;;;;2690710;28;20244;-64
2021/10/20 02:31:04;;;;;;;13.63;12.43;;;8.30;99.90;;;;;;2690837;28;20447;-64
2021/10/20 02:32:23;;;;;;;14.87;12.77;;;8.30;99.90;;;;;;2690403;28;20244;-65
2021/10/20 02:33:40;;;;;;;13.07;11.77;;;8.20;99.90;;;;;;2690654;28;20209;-65
2021/10/20 02:34:59;;;;;;;13.80;12.50;;;8.20;99.90;;;;;;2689885;28;20724;-64
2021/10/20 02:36:17;;;;;;;14.13;12.82;;;8.20;99.90;;;;;;2690808;28;20205;-64
2021/10/20 02:37:35;;;;;;;12.85;10.85;;;8.20;99.90;;;;;;2690840;28;20205;-64
2021/10/20 02:38:53;;;;;;;13.27;12.07;;;8.30;99.90;;;;;;2690847;28;20341;-64
2021/10/20 02:40:11;;;;;;;13.73;12.43;;;8.30;99.90;;;;;;2690615;28;20265;-64
2021/10/20 02:41:29;;;;;;;12.20;11.17;;;8.30;99.90;;;;;;2691034;28;20255;-65
2021/10/20 02:42:48;;;;;;;14.20;11.55;;;8.30;99.90;;;;;;2690522;28;20220;-64
2021/10/20 02:44:05;;;;;;;13.00;11.80;;;8.30;99.90;;;;;;2689706;28;20204;-65
2021/10/20 02:45:23;;;;;;;13.07;11.93;;;8.30;99.90;;;;;;2690445;28;20240;-64
2021/10/20 02:46:42;;;;;;;13.07;11.98;;;8.30;99.90;;;;;;2690426;28;20616;-64
2021/10/20 02:47:59;;;;;;;14.25;12.90;;;8.20;99.90;;;;;;2690694;28;20600;-64
2021/10/20 02:49:18;;;;;;;12.23;11.13;;;8.20;99.90;;;;;;2690480;28;20197;-64
2021/10/20 02:50:35;;;;;;;14.43;12.13;;;8.20;99.90;;;;;;2690673;28;20209;-65
2021/10/20 02:51:54;;;;;;;12.87;11.67;;;8.20;99.90;;;;;;2690624;28;20685;-64
2021/10/20 02:53:11;;;;;;;12.35;11.15;;;8.10;99.90;;;;;;2700392;28;20245;-64
2021/10/20 02:54:29;;;;;;;13.17;11.77;;;8.10;99.90;;;;;;2700201;28;20277;-65
2021/10/20 02:55:48;;;;;;;13.35;12.07;;;8.10;99.90;;;;;;2701147;28;20204;-65
2021/10/20 02:57:06;;;;;;;13.10;11.80;;;8.20;99.90;;;;;;2696714;28;20232;-64
2021/10/20 02:58:26;;;;;;;12.73;11.43;;;8.20;99.90;;;;;;2699178;28;20232;-64
2021/10/20 02:59:45;;;;;;;13.57;12.18;;;8.30;99.90;;;;;;2701379;28;20258;-64
2021/10/20 03:01:02;;;;;;;12.10;11.00;;;8.30;99.90;;;;;;2701874;28;20565;-64
2021/10/20 03:02:21;;;;;;;12.47;11.37;;;8.30;99.90;;;;;;2703336;28;20208;-65
2021/10/20 03:03:39;;;;;;;12.98;11.73;;;8.30;99.90;;;;;;2703674;28;20675;-64
2021/10/20 03:04:57;;;;;;;12.65;11.55;;;8.40;99.90;;;;;;2702528;28;20656;-64
2021/10/20 03:06:15;;;;;;;14.00;12.87;;;8.40;99.90;;;;;;2703390;28;20304;-64
2021/10/20 03:07:34;;;;;;;14.35;12.93;;;8.40;99.90;;;;;;2703373;28;20261;-64
2021/10/20 03:08:53;;;;;;;13.25;12.05;;;8.40;99.90;;;;;;2703386;28;20200;-65
2021/10/20 03:10:11;;;;;;;12.40;11.27;;;8.30;99.90;;;;;;2703497;28;20204;-65
2021/10/20 03:11:29;;;;;;;12.70;11.50;;;8.30;99.90;;;;;;2703398;28;20245;-65
2021/10/20 03:12:47;;;;;;;12.30;11.20;;;8.30;99.90;;;;;;2703352;28;20253;-65
2021/10/20 03:14:05;;;;;;;12.27;11.17;;;8.30;99.90;;;;;;2702538;28;20199;-64
2021/10/20 03:15:23;;;;;;;12.73;11.57;;;8.30;99.90;;;;;;2702077;28;20208;-65
2021/10/20 03:16:41;;;;;;;14.93;11.77;;;8.30;99.90;;;;;;2703403;28;20673;-65
2021/10/20 03:18:00;;;;;;;13.25;12.02;;;8.40;99.90;;;;;;2703174;28;20203;-65
2021/10/20 03:19:19;;;;;;;11.82;10.77;;;8.30;99.90;;;;;;2703223;28;20602;-64
2021/10/20 03:20:36;;;;;;;12.55;11.45;;;8.30;99.90;;;;;;2703490;28;20559;-65
2021/10/20 03:21:54;;;;;;;11.43;10.43;;;8.40;99.90;;;;;;2703491;28;20286;-65
2021/10/20 03:23:13;;;;;;;11.18;10.18;;;8.40;99.90;;;;;;2703233;28;20241;-64
2021/10/20 03:24:30;;;;;;;12.02;10.93;;;8.40;99.90;;;;;;2702263;28;20257;-64
2021/10/20 03:25:49;;;;;;;11.70;10.60;;;8.50;99.90;;;;;;2703270;28;20578;-64
2021/10/20 03:27:07;;;;;;;14.10;10.85;;;8.40;99.90;;;;;;2703017;28;20257;-64
2021/10/20 03:28:26;;;;;;;11.02;10.02;;;8.40;99.90;;;;;;2703180;28;20207;-64
2021/10/20 03:29:43;;;;;;;13.00;11.70;;;8.40;99.90;;;;;;2703333;28;20720;-65
2021/10/20 03:31:02;;;;;;;11.87;10.63;;;8.40;99.90;;;;;;2703287;28;20212;-65
2021/10/20 03:32:19;;;;;;;11.73;10.52;;;8.40;99.90;;;;;;2702012;28;20216;-64
2021/10/20 03:33:38;;;;;;;12.27;10.97;;;8.40;99.90;;;;;;2703126;28;20859;-65
2021/10/20 03:34:55;;;;;;;11.88;10.77;;;8.40;99.90;;;;;;2702319;28;20227;-65
2021/10/20 03:36:14;;;;;;;11.83;10.73;;;8.40;99.90;;;;;;2703222;28;20269;-65
2021/10/20 03:37:31;;;;;;;12.38;11.20;;;8.40;99.90;;;;;;2703046;28;20207;-65
2021/10/20 03:38:49;;;;;;;12.77;11.60;;;8.40;99.90;;;;;;2703081;28;20309;-65
2021/10/20 03:40:08;;;;;;;11.57;10.48;;;8.40;99.90;;;;;;2703272;28;20208;-65
2021/10/20 03:41:26;;;;;;;12.10;10.60;;;8.40;99.90;;;;;;2702896;28;20204;-65
2021/10/20 03:42:44;;;;;;;11.30;10.30;;;8.40;99.90;;;;;;2703037;28;20200;-64
2021/10/20 03:44:02;;;;;;;12.60;11.23;;;8.40;99.90;;;;;;2702257;28;20207;-65
2021/10/20 03:45:21;;;;;;;11.15;10.13;;;8.50;99.90;;;;;;2703013;28;20223;-64
2021/10/20 03:46:39;;;;;;;11.43;10.32;;;8.50;99.90;;;;;;2703020;28;20265;-64
2021/10/20 03:47:58;;;;;;;11.60;10.50;;;8.50;99.90;;;;;;2703065;28;20233;-64
2021/10/20 03:49:16;;;;;;;10.95;9.95;;;8.50;99.90;;;;;;2702047;28;20208;-65
2021/10/20 03:50:34;;;;;;;12.50;11.30;;;8.50;99.90;;;;;;2703011;28;20681;-64
2021/10/20 03:51:52;;;;;;;11.27;10.07;;;8.50;99.90;;;;;;2702892;28;20609;-64
2021/10/20 03:53:10;;;;;;;11.93;10.17;;;8.50;99.90;;;;;;2702931;28;20288;-65
2021/10/20 03:54:28;;;;;;;9.88;9.07;;;8.50;99.90;;;;;;2702039;28;20261;-64
2021/10/20 03:55:46;;;;;;;10.77;9.87;;;8.50;99.90;;;;;;2702839;28;20693;-65
2021/10/20 03:57:05;;;;;;;11.43;10.38;;;8.40;99.90;;;;;;2702647;28;20230;-65
2021/10/20 03:58:23;;;;;;;10.43;9.32;;;8.40;99.90;;;;;;2702968;28;20200;-64
2021/10/20 03:59:42;;;;;;;10.45;9.55;;;8.50;99.90;;;;;;2703028;28;20260;-65
2021/10/20 04:01:01;;;;;;;10.95;9.95;;;8.40;99.90;;;;;;2702888;28;20335;-64
2021/10/20 04:02:19;;;;;;;11.43;10.10;;;8.40;99.90;;;;;;2702511;28;21086;-65
2021/10/20 04:03:38;;;;;;;10.95;9.95;;;8.40;99.90;;;;;;2695626;28;20219;-65
2021/10/20 04:04:56;;;;;;;11.73;10.10;;;8.40;99.90;;;;;;2697682;28;20228;-64
2021/10/20 04:06:15;;;;;;;10.82;9.82;;;8.40;99.90;;;;;;2700191;28;20213;-64
2021/10/20 04:07:32;;;;;;;10.30;9.30;;;8.30;99.90;;;;;;2692154;28;20205;-65
2021/10/20 04:08:51;;;;;;;10.90;9.90;;;8.30;99.90;;;;;;2691959;28;20208;-65
2021/10/20 04:10:08;;;;;;;11.30;10.40;;;8.30;99.90;;;;;;2692106;28;20623;-64
2021/10/20 04:11:26;;;;;;;11.03;10.03;;;8.30;99.90;;;;;;2691920;28;20252;-65
2021/10/20 04:12:44;;;;;;;11.30;10.10;;;8.30;99.90;;;;;;2691712;28;20204;-65
2021/10/20 04:14:02;;;;;;;11.17;10.13;;;8.20;99.90;;;;;;2691328;28;20288;-65
2021/10/20 04:15:20;;;;;;;11.07;9.98;;;8.20;99.90;;;;;;2691806;28;20205;-65
2021/10/20 04:16:38;;;;;;;11.50;10.40;;;8.20;99.90;;;;;;2692176;28;20296;-65
2021/10/20 04:17:57;;;;;;;14.10;9.68;;;8.20;99.90;;;;;;2691841;28;20205;-65
2021/10/20 04:19:14;;;;;;;10.88;9.88;;;8.10;99.90;;;;;;2692019;28;20228;-65
2021/10/20 04:20:33;;;;;;;11.20;10.17;;;8.10;99.90;;;;;;2691780;28;20236;-65
2021/10/20 04:21:51;;;;;;;11.50;9.80;;;8.10;99.90;;;;;;2691857;28;20955;-65
2021/10/20 04:23:09;;;;;;;11.38;10.38;;;8.10;99.90;;;;;;2692375;28;20605;-65
2021/10/20 04:24:27;;;;;;;10.35;9.45;;;8.10;99.90;;;;;;2691020;28;20300;-65
2021/10/20 04:25:45;;;;;;;10.50;9.60;;;8.20;99.90;;;;;;2691935;28;20318;-65
2021/10/20 04:27:03;;;;;;;11.60;10.55;;;8.20;99.90;;;;;;2692156;28;20201;-65
2021/10/20 04:28:21;;;;;;;10.70;9.70;;;8.20;99.90;;;;;;2691802;28;20992;-65
2021/10/20 04:29:39;;;;;;;11.88;10.75;;;8.30;99.90;;;;;;2691956;28;20212;-65
2021/10/20 04:30:57;;;;;;;11.43;10.40;;;8.30;99.90;;;;;;2691958;28;20669;-65
2021/10/20 04:32:15;;;;;;;11.43;10.32;;;8.30;99.90;;;;;;2691703;28;20213;-65
2021/10/20 04:33:33;;;;;;;10.70;9.80;;;8.30;99.90;;;;;;2691745;28;20624;-65
2021/10/20 04:34:51;;;;;;;11.35;10.45;;;8.30;99.90;;;;;;2691556;28;20211;-65
2021/10/20 04:36:10;;;;;;;9.57;8.68;;;8.30;99.90;;;;;;2691869;28;20205;-65
2021/10/20 04:37:28;;;;;;;10.50;9.60;;;8.20;99.90;;;;;;2691776;28;20231;-65
2021/10/20 04:38:46;;;;;;;12.50;10.18;;;8.20;99.90;;;;;;2691706;28;20215;-65
2021/10/20 04:40:04;;;;;;;10.93;9.93;;;8.20;99.90;;;;;;2692360;28;20292;-65
2021/10/20 04:41:23;;;;;;;10.35;9.45;;;8.20;99.90;;;;;;2691607;28;20543;-65
2021/10/20 04:42:42;;;;;;;11.20;10.20;;;8.20;99.90;;;;;;2691904;28;20295;-65
2021/10/20 04:44:00;;;;;;;10.20;9.20;;;8.20;99.90;;;;;;2691054;28;20204;-65
2021/10/20 04:45:17;;;;;;;11.10;10.00;;;8.20;99.90;;;;;;2691602;28;20200;-65
2021/10/20 04:46:36;;;;;;;9.80;8.90;;;8.20;99.90;;;;;;2691722;28;20255;-65
2021/10/20 04:47:53;;;;;;;10.52;9.63;;;8.20;99.90;;;;;;2691841;28;20735;-65
2021/10/20 04:49:12;;;;;;;11.70;10.53;;;8.10;99.90;;;;;;2691729;28;20208;-64
2021/10/20 04:50:30;;;;;;;10.80;9.90;;;8.20;99.90;;;;;;2691481;28;20205;-65
2021/10/20 04:51:48;;;;;;;12.32;11.13;;;8.10;99.90;;;;;;2691589;28;20204;-65
2021/10/20 04:53:07;;;;;;;10.95;9.98;;;8.10;99.90;;;;;;2700706;28;20207;-65
2021/10/20 04:54:24;;;;;;;11.32;10.32;;;8.20;99.90;;;;;;2701525;28;20266;-64
2021/10/20 04:55:43;;;;;;;11.10;10.10;;;8.20;99.90;;;;;;2702087;28;20708;-65
2021/10/20 04:57:00;;;;;;;10.95;10.02;;;8.20;99.90;;;;;;2701851;28;20216;-64
2021/10/20 04:58:18;;;;;;;9.47;8.57;;;8.10;99.90;;;;;;2691434;28;20282;-65
2021/10/20 04:59:36;;;;;;;10.93;10.02;;;8.10;99.90;;;;;;2691441;28;20232;-64
2021/10/20 05:00:54;;;;;;;11.37;10.27;;;8.10;99.90;;;;;;2691571;28;20289;-65
2021/10/20 05:02:12;;;;;;;11.30;10.20;;;8.20;99.90;;;;;;2691529;28;20246;-64
2021/10/20 05:03:30;;;;;;;11.50;10.30;;;8.10;99.90;;;;;;2691489;28;20224;-64
2021/10/20 05:04:48;;;;;;;11.60;10.45;;;8.00;99.90;;;;;;2690617;28;20270;-64
2021/10/20 05:06:06;;;;;;;10.17;9.17;;;8.00;99.90;;;;;;2691535;28;20232;-64
2021/10/20 05:07:25;;;;;;;11.35;10.32;;;8.00;99.90;;;;;;2691402;28;20250;-64
2021/10/20 05:08:43;;;;;;;11.10;10.00;;;8.00;99.90;;;;;;2692524;28;20211;-65
2021/10/20 05:10:02;;;;;;;11.80;10.07;;;8.00;99.90;;;;;;2701551;28;20900;-64
2021/10/20 05:11:20;;;;;;;10.65;9.77;;;7.90;99.90;;;;;;2692077;28;20262;-64
2021/10/20 05:12:37;;;;;;;11.88;10.70;;;7.90;99.90;;;;;;2691452;28;20201;-64
2021/10/20 05:13:56;;;;;;;11.43;10.33;;;7.90;99.90;;;;;;2690486;28;20294;-64
2021/10/20 05:15:13;;;;;;;11.60;10.55;;;7.90;99.90;;;;;;2701612;28;20208;-64
2021/10/20 05:16:32;;;;;;;11.77;10.70;;;7.80;99.90;;;;;;2701939;28;20294;-65
2021/10/20 05:17:50;;;;;;;13.50;12.27;;;7.80;99.90;;;;;;2701943;28;20273;-65
2021/10/20 05:19:08;;;;;;;12.70;11.60;;;7.70;99.90;;;;;;2702004;28;20281;-65
2021/10/20 05:20:26;;;;;;;12.33;10.73;;;7.80;99.90;;;;;;2702152;28;20683;-65
2021/10/20 05:21:43;;;;;;;11.95;10.85;;;7.80;99.90;;;;;;2702162;28;20200;-65
2021/10/20 05:23:02;;;;;;;11.70;10.30;;;7.80;99.90;;;;;;2702184;28;20307;-65
2021/10/20 05:24:19;;;;;;;13.57;12.48;;;7.90;99.90;;;;;;2700513;28;20215;-65
2021/10/20 05:25:38;;;;;;;12.53;11.30;;;7.80;99.90;;;;;;2701834;28;20286;-65
2021/10/20 05:26:56;;;;;;;12.15;11.05;;;7.80;99.90;;;;;;2701953;28;20215;-65
2021/10/20 05:28:15;;;;;;;12.77;11.48;;;7.70;99.90;;;;;;2702270;28;20211;-65
2021/10/20 05:29:33;;;;;;;12.00;10.80;;;7.70;99.90;;;;;;2701823;28;20314;-65
2021/10/20 05:30:51;;;;;;;11.52;10.63;;;7.70;99.90;;;;;;2701779;28;20269;-64
2021/10/20 05:32:09;;;;;;;12.60;11.40;;;7.70;99.90;;;;;;2691558;28;20248;-64
2021/10/20 05:33:28;;;;;;;12.13;10.85;;;7.70;99.90;;;;;;2691079;28;20193;-64
2021/10/20 05:34:46;;;;;;;11.40;10.32;;;7.70;99.90;;;;;;2691149;28;20205;-65
2021/10/20 05:36:04;;;;;;;11.20;10.10;;;7.70;99.90;;;;;;2691279;28;20200;-64
2021/10/20 05:37:23;;;;;;;12.13;11.02;;;7.80;99.90;;;;;;2691146;28;20257;-65
2021/10/20 05:38:41;;;;;;;13.25;11.02;;;7.70;99.90;;;;;;2691358;28;20216;-67
2021/10/20 05:39:59;;;;;;;12.93;11.63;;;7.60;99.90;;;;;;2691345;28;20224;-65
2021/10/20 05:41:17;;;;;;;12.07;10.97;;;7.60;99.90;;;;;;2691397;28;20282;-65
2021/10/20 05:42:36;;;;;;;12.48;11.38;;;7.60;99.90;;;;;;2691137;28;20661;-65
2021/10/20 05:43:54;;;;;;;12.85;11.60;;;7.60;99.90;;;;;;2690051;28;20209;-65
2021/10/20 05:45:13;;;;;;;11.13;10.02;;;7.70;99.90;;;;;;2690969;28;20197;-65
2021/10/20 05:46:30;;;;;;;11.60;10.60;;;7.70;99.90;;;;;;2691148;28;20201;-65
2021/10/20 05:47:49;;;;;;;12.00;10.70;;;7.70;99.90;;;;;;2691246;28;20288;-65
2021/10/20 05:49:07;;;;;;;11.23;10.23;;;7.80;99.90;;;;;;2691896;28;20212;-65
2021/10/20 05:50:26;;;;;;;11.23;10.20;;;7.80;99.90;;;;;;2690932;28;20594;-65
2021/10/20 05:51:44;;;;;;;11.80;10.75;;;7.90;99.90;;;;;;2691132;28;20204;-65
2021/10/20 05:53:02;;;;;;;13.38;11.43;;;7.90;99.90;;;;;;2699320;28;20844;-65
2021/10/20 05:54:21;;;;;;;10.88;9.85;;;8.00;99.90;;;;;;2701187;28;20269;-64
2021/10/20 05:55:40;;;;;;;12.18;10.98;;;7.90;99.90;;;;;;2701984;28;20211;-65
2021/10/20 05:56:59;;;;;;;16.85;11.95;;;7.90;99.90;;;;;;2702059;28;20200;-65
2021/10/20 05:58:16;;;;;;;13.00;11.55;;;7.90;99.90;;;;;;2701618;28;20253;-65
2021/10/20 05:59:35;;;;;;;12.73;11.50;;;7.90;99.90;;;;;;2701567;28;20701;-64
2021/10/20 06:00:52;;;;;;;12.52;11.23;;;7.90;99.90;;;;;;2701672;28;20208;-64
2021/10/20 06:02:14;;;;;;;11.77;10.60;;;7.90;99.90;;;;;;2705685;28;20241;-65
2021/10/20 06:03:32;;;;;;;16.05;11.82;;;7.90;99.90;;;;;;2708688;28;20208;-65
2021/10/20 06:04:51;;;;;;;14.70;12.75;;;7.90;99.90;;;;;;2708334;28;20839;-65
2021/10/20 06:06:08;;;;;;;15.90;12.40;;;8.00;99.90;;;;;;2665888;22;21966;-65
2021/10/20 06:07:27;;;;;;;16.40;12.67;;;8.00;99.90;;;;;;2659478;22;20311;-64
2021/10/20 06:08:46;;;;;;;15.23;13.27;;;8.10;99.90;;;;;;2690848;28;20725;-65
2021/10/20 06:10:05;;;;;;;18.55;14.30;;;8.00;99.90;;;;;;2701288;28;20200;-65
2021/10/20 06:11:23;;;;;;;17.88;14.27;;;8.00;99.90;;;;;;2701744;28;20200;-65
2021/10/20 06:12:42;;;;;;;15.48;13.35;;;8.00;99.90;;;;;;2701639;28;20617;-65
2021/10/20 06:14:00;;;;;;;14.15;12.65;;;8.10;99.90;;;;;;2700247;28;20657;-65
2021/10/20 06:15:22;;;;;;;12.60;11.40;;;8.10;99.90;;;;;;2697647;28;20613;-65
2021/10/20 06:16:41;;;;;;;11.70;10.52;;;8.10;99.90;;;;;;2694625;28;20189;-65
2021/10/20 06:18:01;;;;;;;11.82;10.63;;;8.20;99.90;;;;;;2690993;28;20239;-65
2021/10/20 06:19:20;;;;;;;13.10;11.45;;;8.30;99.90;;;;;;2690572;28;20662;-65
2021/10/20 06:20:38;;;;;;;14.48;12.88;;;8.30;99.90;;;;;;2690761;28;20702;-65
2021/10/20 06:21:57;;;;;;;11.85;10.70;;;8.30;99.90;;;;;;2690898;28;20732;-64
2021/10/20 06:23:15;;;;;;;11.13;10.02;;;8.30;99.90;;;;;;2701563;28;20204;-65
2021/10/20 06:24:34;;;;;;;12.60;11.45;;;8.30;99.90;;;;;;2700828;28;20206;-65
2021/10/20 06:25:52;;;;;;;11.13;10.07;;;8.30;99.90;;;;;;2701435;28;20192;-65
2021/10/20 06:27:11;;;;;;;12.38;11.18;;;8.40;99.90;;;;;;2701507;28;20204;-65
2021/10/20 06:28:29;;;;;;;12.27;11.10;;;8.40;99.90;;;;;;2701338;28;20212;-64
2021/10/20 06:29:48;;;;;;;11.45;10.20;;;8.50;99.90;;;;;;2701583;28;20212;-64
2021/10/20 06:31:06;;;;;;;10.90;10.00;;;8.50;99.90;;;;;;2701664;28;20874;-65
2021/10/20 06:32:24;;;;;;;10.85;9.48;;;8.50;99.90;;;;;;2701269;28;20204;-65
2021/10/20 06:33:43;;;;;;;10.90;9.93;;;8.50;99.90;;;;;;2701470;28;20664;-65
2021/10/20 06:35:01;;;;;;;10.55;9.45;;;8.50;99.90;;;;;;2700607;28;20274;-65
2021/10/20 06:36:20;;;;;;;10.52;9.55;;;8.50;99.90;;;;;;2701571;28;20230;-65
2021/10/20 06:37:38;;;;;;;10.50;9.50;;;8.50;99.90;;;;;;2701481;28;20380;-65
2021/10/20 06:38:57;;;;;;;10.63;9.55;;;8.50;99.90;;;;;;2701175;28;20208;-65
2021/10/20 06:40:15;;;;;;;10.23;9.30;;;8.40;99.90;;;;;;2701327;28;20281;-65
2021/10/20 06:41:34;;;;;;;10.25;9.25;;;8.40;99.90;;;;;;2701201;28;20204;-65
2021/10/20 06:42:52;;;;;;;10.30;9.40;;;8.40;99.90;;;;;;2701338;28;20833;-64